Time;durP1;ratioP1;P1;durP2;ratioP2;P2;SDS_P1;SDS_P2;PMS_P1;PMS_P2;Temp;Humidity;BMP_temperature;BMP_pressure;BME280_temperature;BME280_humidity;BME280_pressure;Samples;Min_cycle;Max_cycle;Signal;HPM_P1;HPM_P2
2021/12/19 00:01:13;;;;;;;21.95;8.57;;;;;;;5.77;99.03;103521.69;4999635;28;20030;-82
2021/12/19 00:09:06;;;;;;;23.80;9.02;;;;;;;5.77;98.91;103513.69;4996492;28;20137;-82
2021/12/19 00:11:33;;;;;;;22.10;9.45;;;;;;;5.78;99.24;103512.78;4991547;28;20525;-82
2021/12/19 00:14:00;;;;;;;21.45;8.25;;;;;;;5.81;99.00;103512.75;5012511;28;20092;-82
2021/12/19 00:16:25;;;;;;;22.65;8.98;;;;;;;5.80;99.17;103502.09;4994027;28;20042;-82
2021/12/19 00:18:52;;;;;;;25.60;11.10;;;;;;;5.78;99.21;103505.66;4985254;28;20461;-82
2021/12/19 00:21:18;;;;;;;24.20;9.75;;;;;;;5.79;99.06;103498.53;5006000;28;20041;-82
2021/12/19 00:23:45;;;;;;;25.52;10.60;;;;;;;5.76;99.19;103499.44;4993581;28;20040;-82
2021/12/19 00:26:12;;;;;;;24.63;10.52;;;;;;;5.79;99.35;103501.22;4995889;28;20416;-81
2021/12/19 00:28:37;;;;;;;25.15;11.82;;;;;;;5.76;99.08;103501.25;5013039;28;20358;-82
2021/12/19 00:31:04;;;;;;;26.42;10.93;;;;;;;5.72;99.50;103495.03;5000085;28;20030;-82
2021/12/19 00:33:30;;;;;;;22.55;10.23;;;;;;;5.73;99.57;103495.94;4986012;28;20136;-82
2021/12/19 00:35:55;;;;;;;25.05;11.02;;;;;;;5.74;99.99;103487.00;4992035;28;20034;-82
2021/12/19 00:38:21;;;;;;;25.92;11.43;;;;;;;5.74;99.77;103485.25;5009704;28;20056;-82
2021/12/19 00:40:47;;;;;;;26.50;11.40;;;;;;;5.71;99.72;103487.94;4993160;28;20850;-82
2021/12/19 00:43:23;;;;;;;26.58;11.30;;;;;;;5.72;99.96;103484.38;5009659;28;20041;-82
2021/12/19 00:45:50;;;;;;;29.17;11.90;;;;;;;5.74;100.00;103489.69;4995045;28;20025;-82
2021/12/19 00:48:16;;;;;;;27.55;12.57;;;;;;;5.72;99.96;103478.16;4990580;28;20034;-82
2021/12/19 00:50:42;;;;;;;23.98;11.10;;;;;;;5.72;100.00;103484.38;5009582;28;20580;-82
2021/12/19 00:53:08;;;;;;;28.20;12.77;;;;;;;5.75;100.00;103486.13;4993697;28;20045;-82
2021/12/19 00:55:34;;;;;;;28.48;11.20;;;;;;;5.74;100.00;103485.25;5018875;28;20037;-82
2021/12/19 00:57:59;;;;;;;26.83;12.25;;;;;;;5.71;100.00;103481.72;5003266;28;20030;-82
2021/12/19 01:00:29;;;;;;;27.35;13.27;;;;;;;5.69;100.00;103486.19;5009205;28;20029;-82
2021/12/19 01:02:58;;;;;;;27.40;13.07;;;;;;;5.72;100.00;103480.81;4988861;28;20100;-82
2021/12/19 01:05:26;;;;;;;25.95;12.23;;;;;;;5.69;100.00;103475.53;5001157;28;20075;-82
2021/12/19 01:07:51;;;;;;;28.45;12.13;;;;;;;5.70;100.00;103478.16;5011093;28;20048;-82
2021/12/19 01:10:17;;;;;;;25.77;12.73;;;;;;;5.67;100.00;103472.88;4998658;28;20149;-82
2021/12/19 01:12:42;;;;;;;27.20;12.23;;;;;;;5.69;100.00;103480.84;5012052;28;20030;-82
2021/12/19 01:15:12;;;;;;;30.85;12.68;;;;;;;5.69;100.00;103478.19;4992372;28;20025;-82
2021/12/19 01:17:37;;;;;;;27.33;11.95;;;;;;;5.72;100.00;103475.47;5011826;28;20037;-82
2021/12/19 01:20:10;;;;;;;27.77;10.82;;;;;;;5.69;100.00;103478.19;4995380;28;20033;-82
2021/12/19 01:22:35;;;;;;;26.98;12.43;;;;;;;5.68;100.00;103471.06;4993906;28;20453;-82
2021/12/19 01:25:01;;;;;;;26.88;11.88;;;;;;;5.66;100.00;103464.88;4992416;28;20033;-82
2021/12/19 01:27:26;;;;;;;25.55;10.23;;;;;;;5.67;100.00;103470.19;5015529;28;20029;-82
2021/12/19 01:29:52;;;;;;;31.08;10.77;;;;;;;5.67;100.00;103456.00;4991515;28;20128;-82
2021/12/19 01:32:17;;;;;;;28.27;11.43;;;;;;;5.67;100.00;103466.66;4992844;28;20391;-82
2021/12/19 01:34:42;;;;;;;27.00;10.85;;;;;;;5.68;100.00;103453.31;4992670;28;20053;-81
2021/12/19 01:37:07;;;;;;;27.27;11.60;;;;;;;5.70;100.00;103463.97;4991524;28;20769;-82
2021/12/19 01:39:33;;;;;;;24.10;9.57;;;;;;;5.72;100.00;103459.47;4992672;28;20042;-82
2021/12/19 01:41:58;;;;;;;27.35;10.98;;;;;;;5.70;100.00;103456.81;5011141;28;20037;-82
2021/12/19 01:44:25;;;;;;;31.05;11.25;;;;;;;5.66;100.00;103447.06;5010713;28;20026;-82
2021/12/19 01:46:51;;;;;;;28.17;10.70;;;;;;;5.68;100.00;103455.06;4992977;28;20026;-82
2021/12/19 01:49:19;;;;;;;26.13;10.50;;;;;;;5.67;100.00;103459.53;4997365;28;20065;-82
2021/12/19 01:51:44;;;;;;;25.58;11.13;;;;;;;5.64;100.00;103462.22;5002095;28;20036;-82
2021/12/19 01:54:10;;;;;;;26.30;9.43;;;;;;;5.65;100.00;103460.44;4996972;28;20475;-82
2021/12/19 01:56:36;;;;;;;24.90;9.88;;;;;;;5.64;100.00;103458.66;5002112;28;20032;-82
2021/12/19 01:59:03;;;;;;;26.77;10.77;;;;;;;5.62;100.00;103452.47;5010345;28;20492;-82
2021/12/19 02:01:29;;;;;;;24.67;10.00;;;;;;;5.60;100.00;103450.69;5006443;28;20060;-82
2021/12/19 02:03:54;;;;;;;27.38;11.15;;;;;;;5.57;100.00;103440.06;4992349;28;20111;-82
2021/12/19 02:06:20;;;;;;;29.13;11.50;;;;;;;5.50;100.00;103442.81;4987852;28;20082;-82
2021/12/19 02:08:48;;;;;;;24.70;10.63;;;;;;;5.47;100.00;103443.72;4995418;28;20539;-82
2021/12/19 02:11:14;;;;;;;28.88;11.82;;;;;;;5.48;100.00;103434.81;4988127;28;20086;-82
2021/12/19 02:13:40;;;;;;;26.63;11.00;;;;;;;5.48;100.00;103439.28;4992775;28;20496;-82
2021/12/19 02:16:05;;;;;;;27.85;12.23;;;;;;;5.47;100.00;103442.84;5000314;28;20042;-82
2021/12/19 02:18:30;;;;;;;26.65;12.15;;;;;;;5.47;100.00;103434.84;4995573;28;20030;-82
2021/12/19 02:20:57;;;;;;;28.77;11.68;;;;;;;5.49;100.00;103435.69;4997279;28;20088;-82
2021/12/19 02:23:26;;;;;;;30.80;11.48;;;;;;;5.47;100.00;103440.19;4989969;28;20022;-82
2021/12/19 02:25:54;;;;;;;25.30;10.63;;;;;;;5.46;100.00;103431.31;4997523;28;20512;-82
2021/12/19 02:28:20;;;;;;;26.52;11.27;;;;;;;5.47;100.00;103427.72;4991834;28;20030;-82
2021/12/19 02:30:46;;;;;;;29.77;12.00;;;;;;;5.48;100.00;103426.81;4994287;28;20034;-82
2021/12/19 02:33:16;;;;;;;27.38;11.68;;;;;;;5.52;100.00;103428.56;4988089;28;20050;-82
2021/12/19 02:35:45;;;;;;;28.83;11.68;;;;;;;5.50;100.00;103427.69;4988993;28;20050;-82
2021/12/19 02:49:19;;;;;;;29.23;11.45;;;;;;;5.39;100.00;103403.81;4989762;28;20367;-82
2021/12/19 02:51:44;;;;;;;27.15;11.07;;;;;;;5.38;100.00;103402.03;4987981;28;20105;-82
2021/12/19 02:54:10;;;;;;;28.77;11.07;;;;;;;5.35;100.00;103403.84;4977961;28;20053;-82
2021/12/19 02:56:35;;;;;;;28.98;12.48;;;;;;;5.34;100.00;103399.41;5002190;28;20034;-82
2021/12/19 02:59:00;;;;;;;29.90;13.77;;;;;;;5.31;100.00;103394.09;4990109;28;20030;-82
2021/12/19 03:01:26;;;;;;;30.52;12.75;;;;;;;5.29;100.00;103401.25;4999969;28;20057;-82
2021/12/19 03:03:51;;;;;;;29.80;12.50;;;;;;;5.29;100.00;103399.47;4996831;28;20033;-82
2021/12/19 03:06:17;;;;;;;28.58;11.88;;;;;;;5.31;100.00;103394.09;4986939;28;20046;-82
2021/12/19 03:08:46;;;;;;;30.90;12.93;;;;;;;5.27;100.00;103381.69;4994479;28;20018;-82
2021/12/19 03:11:58;;;;;;;34.35;13.68;;;;;;;5.27;100.00;103393.28;4997352;28;20030;-82
2021/12/19 03:19:40;;;;;;;31.08;13.15;;;;;;;5.34;100.00;103386.06;4989178;28;20104;-82
2021/12/19 03:22:06;;;;;;;28.63;13.35;;;;;;;5.35;100.00;103375.38;4987263;28;20125;-82
2021/12/19 03:24:31;;;;;;;34.70;14.35;;;;;;;5.35;100.00;103375.38;4989117;28;20035;-82
2021/12/19 03:26:56;;;;;;;33.75;14.38;;;;;;;5.33;100.00;103371.88;4989883;28;20138;-82
2021/12/19 03:29:21;;;;;;;31.65;13.85;;;;;;;5.32;100.00;103372.75;4992374;28;20184;-82
2021/12/19 03:31:47;;;;;;;31.25;14.88;;;;;;;5.31;100.00;103367.44;4993943;28;20467;-82
2021/12/19 03:34:13;;;;;;;31.88;14.98;;;;;;;5.33;100.00;103362.97;4987891;28;20393;-82
2021/12/19 03:36:38;;;;;;;30.27;13.07;;;;;;;5.33;100.00;103354.97;4987454;28;20030;-82
2021/12/19 03:39:13;;;;;;;33.78;15.10;;;;;;;5.32;100.00;103351.44;4988310;28;20529;-82
2021/12/19 03:41:40;;;;;;;32.67;14.57;;;;;;;5.31;100.00;103351.44;4995613;28;20350;-82
2021/12/19 03:44:06;;;;;;;35.13;14.80;;;;;;;5.36;100.00;103344.25;4985406;28;20125;-82
2021/12/19 03:46:31;;;;;;;43.03;15.18;;;;;;;5.38;100.00;103354.03;5008492;28;20113;-82
2021/12/19 03:48:56;;;;;;;35.78;15.55;;;;;;;5.35;100.00;103348.72;5005083;28;20034;-82
2021/12/19 03:51:22;;;;;;;34.53;15.13;;;;;;;5.39;100.00;103354.94;4996702;28;20034;-82
2021/12/19 03:53:48;;;;;;;37.67;14.75;;;;;;;5.38;100.00;103343.34;4992091;28;20084;-82
2021/12/19 03:56:13;;;;;;;34.28;14.82;;;;;;;5.40;100.00;103346.00;4992088;28;20397;-82
2021/12/19 03:58:38;;;;;;;32.88;15.43;;;;;;;5.43;100.00;103340.63;5003789;28;20040;-82
2021/12/19 04:01:05;;;;;;;39.45;14.95;;;;;;;5.42;100.00;103341.56;4995833;28;20524;-82
2021/12/19 04:03:30;;;;;;;37.40;16.92;;;;;;;5.40;100.00;103336.25;4992530;28;20118;-82
2021/12/19 04:05:55;;;;;;;33.05;14.50;;;;;;;5.40;100.00;103338.91;4991290;28;20120;-82
2021/12/19 04:08:21;;;;;;;34.63;14.88;;;;;;;5.42;100.00;103338.88;5012500;28;20034;-82
2021/12/19 04:10:49;;;;;;;32.28;13.95;;;;;;;5.43;100.00;103341.53;4998481;28;20026;-82
2021/12/19 04:13:16;;;;;;;30.02;13.15;;;;;;;5.45;100.00;103336.19;5018752;28;20041;-82
2021/12/19 04:15:41;;;;;;;34.72;14.10;;;;;;;5.46;100.00;103332.63;4986847;28;20037;-82
2021/12/19 04:18:07;;;;;;;32.25;12.75;;;;;;;5.47;100.00;103330.81;5010308;28;20099;-82
2021/12/19 04:20:32;;;;;;;32.05;14.57;;;;;;;5.47;100.00;103329.03;5015349;28;20313;-82
2021/12/19 04:22:58;;;;;;;33.30;13.32;;;;;;;5.49;100.00;103329.00;5012535;28;20079;-82
2021/12/19 04:25:23;;;;;;;29.77;13.13;;;;;;;5.49;100.00;103313.91;5011817;28;20040;-82
2021/12/19 04:27:49;;;;;;;29.58;11.55;;;;;;;5.48;100.00;103322.81;5012012;28;20331;-82
2021/12/19 04:30:20;;;;;;;28.20;12.13;;;;;;;5.44;100.00;103313.06;5005639;28;20055;-82
2021/12/19 04:32:56;;;;;;;26.60;10.02;;;;;;;5.42;100.00;103314.88;4995452;28;20073;-82
2021/12/19 04:35:21;;;;;;;25.65;9.75;;;;;;;5.38;100.00;103303.34;4994670;28;20034;-82
2021/12/19 04:40:45;;;;;;;26.27;10.10;;;;;;;5.34;100.00;103298.94;4994642;28;20061;-82
2021/12/19 04:56:39;;;;;;;24.02;7.97;;;;;;;5.18;100.00;103298.28;5029942;28;20131;-82
2021/12/19 04:59:47;;;;;;;23.80;8.00;;;;;;;5.19;100.00;103284.03;5003678;28;20029;-82
2021/12/19 05:05:23;;;;;;;24.15;9.10;;;;;;;5.13;100.00;103276.09;4961911;28;20103;-82
2021/12/19 05:16:00;;;;;;;22.55;8.70;;;;;;;5.10;100.00;103275.25;4991748;28;20136;-82
2021/12/19 05:18:29;;;;;;;23.00;8.32;;;;;;;5.12;100.00;103278.78;4989313;28;20030;-82
2021/12/19 05:21:01;;;;;;;24.45;9.15;;;;;;;5.10;100.00;103278.81;5002231;28;20100;-82
2021/12/19 05:26:14;;;;;;;24.70;9.02;;;;;;;5.12;100.00;103281.44;4977173;28;20045;-82
2021/12/19 05:28:39;;;;;;;24.77;8.93;;;;;;;5.07;100.00;103281.50;5011762;28;20398;-82
2021/12/19 05:31:05;;;;;;;29.75;9.23;;;;;;;5.08;100.00;103281.50;5027746;28;20067;-82
2021/12/19 05:33:30;;;;;;;25.17;9.45;;;;;;;5.08;100.00;103281.50;4994488;28;20037;-82
2021/12/19 05:36:11;;;;;;;30.73;10.80;;;;;;;5.07;100.00;103284.16;4998417;28;20060;-82
2021/12/19 05:45:11;;;;;;;26.42;11.10;;;;;;;5.06;100.00;103282.41;5018953;28;20061;-82
2021/12/19 05:46:57;;;;;;;24.33;10.13;;;;;;;5.02;100.00;103283.31;5009286;28;20041;-82
2021/12/19 05:49:22;;;;;;;28.35;9.95;;;;;;;5.00;100.00;103282.47;5010355;28;20430;-82
2021/12/19 05:51:48;;;;;;;26.63;8.93;;;;;;;4.96;100.00;103278.94;5009513;28;20129;-82
2021/12/19 05:54:13;;;;;;;24.33;8.48;;;;;;;4.93;100.00;103278.97;5016314;28;20034;-82
2021/12/19 05:56:40;;;;;;;21.10;7.20;;;;;;;4.93;100.00;103270.09;4992667;28;20056;-82
2021/12/19 05:59:09;;;;;;;23.83;7.80;;;;;;;4.97;100.00;103282.50;4997312;28;20103;-82
2021/12/19 06:01:35;;;;;;;22.08;7.65;;;;;;;4.96;100.00;103270.06;5011822;28;20369;-82
2021/12/19 06:04:00;;;;;;;21.38;7.65;;;;;;;4.96;100.00;103262.94;5010194;28;20553;-82
2021/12/19 06:06:26;;;;;;;21.52;7.10;;;;;;;4.98;100.00;103266.50;5008953;28;20132;-82
2021/12/19 06:08:52;;;;;;;22.02;7.93;;;;;;;4.99;100.00;103260.28;4992108;28;20128;-82
2021/12/19 06:11:18;;;;;;;22.85;9.25;;;;;;;4.98;100.00;103254.94;4993169;28;20112;-82
2021/12/19 06:13:43;;;;;;;22.58;8.13;;;;;;;4.99;100.00;103259.38;4996362;28;20121;-82
2021/12/19 06:16:09;;;;;;;22.90;8.15;;;;;;;4.97;100.00;103263.84;5008626;28;20013;-82
2021/12/19 06:18:34;;;;;;;24.27;8.90;;;;;;;4.97;100.00;103258.53;5005624;28;20112;-82
2021/12/19 06:20:59;;;;;;;22.88;8.73;;;;;;;4.99;100.00;103264.69;5017760;28;20108;-82
2021/12/19 06:23:25;;;;;;;23.00;9.25;;;;;;;4.99;100.00;103259.38;5014228;28;20095;-82
2021/12/19 06:25:50;;;;;;;25.60;9.75;;;;;;;4.99;100.00;103260.28;5007568;28;20048;-82
2021/12/19 06:28:17;;;;;;;24.45;11.15;;;;;;;5.01;100.00;103252.25;4991174;28;20025;-82
2021/12/19 06:30:44;;;;;;;29.05;13.10;;;;;;;4.99;100.00;103248.72;4993340;28;20025;-82
2021/12/19 06:33:09;;;;;;;28.38;12.18;;;;;;;4.99;100.00;103257.63;4991472;28;20433;-82
2021/12/19 06:35:35;;;;;;;27.65;12.25;;;;;;;4.97;100.00;103256.72;5009201;28;20033;-82
2021/12/19 06:38:00;;;;;;;29.65;13.93;;;;;;;4.98;100.00;103252.28;5010405;28;20036;-82
2021/12/19 06:40:26;;;;;;;29.83;12.00;;;;;;;4.97;100.00;103253.19;5009313;28;20026;-81
2021/12/19 06:42:51;;;;;;;27.50;12.25;;;;;;;4.97;100.00;103245.19;5009862;28;20038;-82
2021/12/19 06:45:19;;;;;;;28.58;14.18;;;;;;;4.99;100.00;103241.63;4984264;28;20037;-82
2021/12/19 06:47:44;;;;;;;27.92;11.98;;;;;;;4.99;100.00;103248.72;5015243;28;20489;-82
2021/12/19 06:50:12;;;;;;;31.52;13.90;;;;;;;4.97;100.00;103245.19;5020284;28;20075;-82
2021/12/19 06:52:39;;;;;;;32.38;14.25;;;;;;;4.99;100.00;103232.72;5024946;28;20112;-82
2021/12/19 06:55:05;;;;;;;29.05;14.05;;;;;;;4.95;100.00;103228.31;5008494;28;20029;-82
2021/12/19 06:57:31;;;;;;;32.13;15.18;;;;;;;4.98;100.00;103230.94;4993745;28;20064;-82
2021/12/19 06:59:56;;;;;;;30.27;14.05;;;;;;;4.96;100.00;103222.09;4996917;28;20400;-83
2021/12/19 07:02:21;;;;;;;32.70;15.75;;;;;;;4.96;100.00;103217.63;5004332;28;20021;-82
2021/12/19 07:04:47;;;;;;;31.08;14.27;;;;;;;4.95;100.00;103207.00;5019548;28;20064;-82
2021/12/19 07:07:12;;;;;;;34.25;15.65;;;;;;;4.98;100.00;103214.97;4991499;28;20486;-82
2021/12/19 07:09:38;;;;;;;33.78;17.17;;;;;;;5.00;100.00;103214.03;4993431;28;20032;-82
2021/12/19 07:12:04;;;;;;;33.08;15.82;;;;;;;4.98;100.00;103212.28;5016916;28;20026;-82
2021/12/19 07:14:30;;;;;;;31.35;15.77;;;;;;;5.00;100.00;103214.03;5017748;28;20029;-82
2021/12/19 07:16:55;;;;;;;33.03;16.23;;;;;;;5.01;100.00;103206.94;5010466;28;20083;-82
2021/12/19 07:19:20;;;;;;;34.28;17.52;;;;;;;5.03;100.00;103213.13;4989740;28;20022;-82
2021/12/19 07:21:45;;;;;;;32.55;16.85;;;;;;;5.06;100.00;103207.75;4986679;28;20034;-82
2021/12/19 07:24:11;;;;;;;32.58;16.30;;;;;;;5.07;100.00;103207.75;4974336;28;20030;-82
2021/12/19 07:26:36;;;;;;;32.25;15.40;;;;;;;5.07;100.00;103210.41;4993018;28;20380;-82
2021/12/19 07:29:02;;;;;;;32.47;16.80;;;;;;;5.08;100.00;103211.28;5006793;28;20029;-82
2021/12/19 07:31:30;;;;;;;38.17;18.23;;;;;;;5.11;100.00;103207.69;4994366;28;20116;-82
2021/12/19 07:33:56;;;;;;;34.58;16.13;;;;;;;5.13;100.00;103211.25;5029018;28;20556;-82
2021/12/19 07:36:24;;;;;;;36.60;17.65;;;;;;;5.14;100.00;103216.56;4994650;28;20113;-82
2021/12/19 07:39:05;;;;;;;35.95;16.83;;;;;;;5.11;100.00;103205.03;5004097;28;20060;-82
2021/12/19 07:41:30;;;;;;;36.17;16.77;;;;;;;5.11;100.00;103208.59;5011099;28;20048;-82
2021/12/19 07:43:55;;;;;;;34.67;17.85;;;;;;;5.09;100.00;103197.06;5006186;28;21563;-82
2021/12/19 07:46:21;;;;;;;38.00;18.17;;;;;;;5.13;100.00;103204.13;4990454;28;20497;-82
2021/12/19 07:48:46;;;;;;;32.63;17.83;;;;;;;5.17;100.00;103195.19;5020126;28;20064;-82
2021/12/19 07:51:11;;;;;;;39.22;17.75;;;;;;;5.21;100.00;103188.03;4990159;28;20485;-82
2021/12/19 07:53:37;;;;;;;34.75;16.55;;;;;;;5.22;100.00;103198.66;4992098;28;20125;-82
2021/12/19 07:56:02;;;;;;;34.65;16.50;;;;;;;5.19;100.00;103185.38;4990440;28;20083;-82
2021/12/19 07:58:28;;;;;;;33.47;15.60;;;;;;;5.21;100.00;103191.59;5016026;28;20057;-82
2021/12/19 08:00:54;;;;;;;29.65;15.55;;;;;;;5.22;100.00;103179.13;4997600;28;20033;-82
2021/12/19 08:03:20;;;;;;;30.65;14.40;;;;;;;5.21;100.00;103185.34;4990496;28;20120;-82
2021/12/19 08:05:45;;;;;;;31.35;14.38;;;;;;;5.22;100.00;103182.66;4989551;28;20133;-82
2021/12/19 08:08:16;;;;;;;27.75;12.30;;;;;;;5.24;100.00;103183.56;5012037;28;20061;-82
2021/12/19 08:13:07;;;;;;;29.23;11.77;;;;;;;5.25;100.00;103187.09;5016108;28;20033;-82
2021/12/19 08:15:34;;;;;;;29.92;12.00;;;;;;;5.29;100.00;103183.47;5016231;28;20030;-82
2021/12/19 08:17:59;;;;;;;27.08;11.68;;;;;;;5.33;100.00;103178.97;4989337;28;20057;-82
2021/12/19 08:20:27;;;;;;;30.25;12.10;;;;;;;5.34;100.00;103183.41;4989784;28;20140;-82
2021/12/19 08:22:53;;;;;;;25.15;11.13;;;;;;;5.33;100.00;103179.88;5010527;28;20405;-82
2021/12/19 08:25:18;;;;;;;26.00;10.90;;;;;;;5.33;100.00;103184.31;5011325;28;20474;-82
2021/12/19 08:27:44;;;;;;;25.40;10.65;;;;;;;5.35;100.00;103171.84;5014826;28;20080;-82
2021/12/19 08:30:12;;;;;;;26.88;11.75;;;;;;;5.34;100.00;103180.75;4999619;28;20461;-82
2021/12/19 08:32:38;;;;;;;25.98;11.75;;;;;;;5.35;100.00;103172.72;5010972;28;20037;-79
2021/12/19 08:35:05;;;;;;;28.00;11.70;;;;;;;5.35;100.00;103174.53;5010675;28;20026;-79
2021/12/19 08:37:30;;;;;;;27.58;12.85;;;;;;;5.36;100.00;103173.59;5005390;28;20038;-79
2021/12/19 08:39:56;;;;;;;29.70;13.48;;;;;;;5.38;100.00;103175.34;5011153;28;20048;-79
2021/12/19 08:42:22;;;;;;;28.73;14.30;;;;;;;5.41;100.00;103177.09;5013989;28;20366;-79
2021/12/19 08:44:47;;;;;;;28.77;14.02;;;;;;;5.43;100.00;103180.59;4993961;28;20505;-79
2021/12/19 08:47:12;;;;;;;30.35;14.05;;;;;;;5.48;100.00;103176.09;5014730;28;20030;-78
2021/12/19 08:49:40;;;;;;;31.45;14.60;;;;;;;5.50;100.00;103181.41;4993993;28;20451;-78
2021/12/19 08:52:06;;;;;;;30.70;12.73;;;;;;;5.53;100.00;103192.03;5011689;28;20025;-79
2021/12/19 08:54:31;;;;;;;27.52;13.63;;;;;;;5.51;100.00;103176.06;5010533;28;20104;-78
2021/12/19 08:56:57;;;;;;;30.00;14.95;;;;;;;5.49;100.00;103184.97;5010217;28;20108;-78
2021/12/19 08:59:22;;;;;;;30.30;13.73;;;;;;;5.48;100.00;103169.91;5015560;28;20064;-79
2021/12/19 09:01:48;;;;;;;29.95;14.60;;;;;;;5.53;100.00;103168.91;4999533;28;20398;-79
2021/12/19 09:04:14;;;;;;;30.52;13.55;;;;;;;5.57;100.00;103169.75;5012672;28;20052;-79
2021/12/19 09:06:39;;;;;;;29.95;12.27;;;;;;;5.59;100.00;103163.50;5013166;28;20046;-78
2021/12/19 09:09:05;;;;;;;30.85;14.88;;;;;;;5.63;100.00;103163.44;5018897;28;20033;-78
2021/12/19 09:11:31;;;;;;;38.00;15.82;;;;;;;5.67;100.00;103162.50;5023713;28;20045;-79
2021/12/19 09:13:57;;;;;;;34.03;12.63;;;;;;;5.70;100.00;103160.66;5015441;28;20025;-79
2021/12/19 09:16:22;;;;;;;25.90;11.88;;;;;;;5.70;100.00;103163.31;5023174;28;20025;-79
2021/12/19 09:18:48;;;;;;;23.02;9.00;;;;;;;5.73;100.00;103155.25;4993473;28;20025;-79
2021/12/19 09:21:13;;;;;;;23.77;8.48;;;;;;;5.76;100.00;103162.34;4995722;28;20040;-79
2021/12/19 09:23:39;;;;;;;20.58;7.78;;;;;;;5.80;100.00;103157.84;5010393;28;20033;-79
2021/12/19 09:26:05;;;;;;;23.15;8.70;;;;;;;5.78;100.00;103147.19;5006644;28;20157;-79
2021/12/19 09:28:30;;;;;;;20.10;6.72;;;;;;;5.80;100.00;103149.81;5010642;28;20034;-79
2021/12/19 09:30:56;;;;;;;19.75;6.32;;;;;;;5.84;100.00;103155.13;5014285;28;20397;-79
2021/12/19 09:33:21;;;;;;;17.23;5.38;;;;;;;5.83;100.00;103148.00;5023408;28;20049;-79
2021/12/19 09:35:46;;;;;;;18.77;5.45;;;;;;;5.85;100.00;103135.50;5016506;28;20025;-79
2021/12/19 09:38:13;;;;;;;20.00;6.25;;;;;;;5.87;100.00;103144.38;5000336;28;20084;-79
2021/12/19 09:40:39;;;;;;;18.17;5.47;;;;;;;5.86;100.00;103139.06;5027946;28;20033;-79
2021/12/19 09:43:31;;;;;;;14.82;4.60;;;;;;;5.85;100.00;103142.63;5010658;28;20025;-79
2021/12/19 09:45:57;;;;;;;15.85;4.88;;;;;;;5.88;100.00;103145.25;5013161;28;20073;-79
2021/12/19 09:48:23;;;;;;;13.77;4.10;;;;;;;5.91;100.00;103155.88;5010487;28;20052;-79
2021/12/19 09:50:48;;;;;;;12.48;3.38;;;;;;;5.88;100.00;103139.91;5006425;28;20439;-79
2021/12/19 09:53:13;;;;;;;12.60;3.95;;;;;;;5.88;100.00;103139.91;5012857;28;20044;-79
2021/12/19 09:55:40;;;;;;;13.23;3.55;;;;;;;5.91;100.00;103134.53;4993359;28;20068;-79
2021/12/19 09:58:05;;;;;;;16.40;4.43;;;;;;;5.94;100.00;103140.72;5001694;28;20072;-79
2021/12/19 10:00:31;;;;;;;14.75;4.10;;;;;;;5.97;100.00;103137.13;5010704;28;20033;-79
2021/12/19 10:02:56;;;;;;;13.75;4.50;;;;;;;5.98;100.00;103141.56;4989641;28;20490;-79
2021/12/19 10:05:25;;;;;;;18.02;4.60;;;;;;;5.96;100.00;103138.00;4994533;28;20033;-78
2021/12/19 10:07:53;;;;;;;15.90;5.10;;;;;;;5.95;100.00;103136.25;4994713;28;20057;-78
2021/12/19 10:10:27;;;;;;;17.42;5.05;;;;;;;6.02;100.00;103139.69;5009844;28;20062;-78
2021/12/19 10:22:46;;;;;;;23.55;6.38;;;;;;;6.10;100.00;103124.44;4954417;28;20038;-79
2021/12/19 10:25:27;;;;;;;21.00;5.75;;;;;;;6.15;100.00;103119.00;4960809;28;20956;-79
2021/12/19 10:27:57;;;;;;;18.85;5.47;;;;;;;6.18;100.00;103126.97;4968586;28;20141;-79
2021/12/19 10:30:25;;;;;;;17.65;5.20;;;;;;;6.18;100.00;103121.63;4955089;28;20461;-79
2021/12/19 10:32:51;;;;;;;18.80;6.00;;;;;;;6.19;100.00;103116.25;4967706;28;20045;-79
2021/12/19 10:35:23;;;;;;;17.80;6.10;;;;;;;6.20;100.00;103112.69;4951628;28;20043;-79
2021/12/19 10:37:49;;;;;;;18.33;5.57;;;;;;;6.20;100.00;103106.47;4967168;28;20043;-79
2021/12/19 10:40:15;;;;;;;20.33;6.43;;;;;;;6.22;100.00;103113.56;4951213;28;20139;-79
2021/12/19 10:42:48;;;;;;;16.48;5.57;;;;;;;6.21;100.00;103101.09;4948450;29;20066;-79
2021/12/19 10:45:29;;;;;;;17.58;5.80;;;;;;;6.21;100.00;103095.75;4963104;28;20067;-79
2021/12/19 10:48:20;;;;;;;17.67;5.57;;;;;;;6.21;100.00;103098.44;5009207;28;20045;-79
2021/12/19 10:50:50;;;;;;;18.30;6.15;;;;;;;6.22;100.00;103097.53;4989502;28;20034;-79
2021/12/19 10:53:17;;;;;;;18.13;5.72;;;;;;;6.18;100.00;103095.81;5010916;28;20048;-79
2021/12/19 10:55:45;;;;;;;18.38;5.97;;;;;;;6.18;100.00;103089.59;5009504;28;20036;-79
2021/12/19 10:58:22;;;;;;;18.05;5.55;;;;;;;6.23;100.00;103085.06;4999157;28;20092;-79
2021/12/19 11:00:55;;;;;;;17.10;5.45;;;;;;;6.24;100.00;103095.69;5020440;28;20410;-79
2021/12/19 11:03:42;;;;;;;16.75;5.15;;;;;;;6.24;100.00;103085.03;4992199;28;20057;-80
2021/12/19 11:06:15;;;;;;;16.00;5.63;;;;;;;6.26;100.00;103085.88;5015077;28;20033;-79
2021/12/19 11:08:41;;;;;;;16.15;5.22;;;;;;;6.26;100.00;103087.66;5025798;28;20041;-79
2021/12/19 11:11:07;;;;;;;17.73;5.10;;;;;;;6.26;100.00;103077.84;5013353;28;20084;-79
2021/12/19 11:13:32;;;;;;;19.20;5.25;;;;;;;6.24;100.00;103070.81;4990918;28;20033;-79
2021/12/19 11:15:58;;;;;;;16.20;5.72;;;;;;;6.27;100.00;103068.94;5000324;28;20029;-79
2021/12/19 11:18:24;;;;;;;21.42;5.68;;;;;;;6.26;100.00;103064.50;5005309;28;20414;-79
2021/12/19 11:20:49;;;;;;;16.33;5.28;;;;;;;6.24;100.00;103063.66;4973528;28;20474;-79
2021/12/19 11:23:14;;;;;;;17.15;4.93;;;;;;;6.24;100.00;103052.97;4989358;28;20026;-79
2021/12/19 11:25:42;;;;;;;15.38;4.78;;;;;;;6.28;100.00;103048.44;4982591;28;20091;-79
2021/12/19 11:28:08;;;;;;;18.80;5.63;;;;;;;6.29;100.00;103043.06;5001340;28;20105;-79
2021/12/19 11:30:33;;;;;;;17.85;5.40;;;;;;;6.32;100.00;103034.13;4988594;28;20030;-79
2021/12/19 11:33:38;;;;;;;17.77;5.00;;;;;;;6.33;100.00;103030.56;4990201;28;20062;-79
2021/12/19 11:36:07;;;;;;;19.70;5.43;;;;;;;6.32;100.00;103025.25;4997770;28;20176;-79
2021/12/19 11:38:36;;;;;;;19.63;5.30;;;;;;;6.33;100.00;103019.00;4990712;28;20115;-79
2021/12/19 11:41:10;;;;;;;15.73;4.57;;;;;;;6.34;100.00;103020.75;5008432;28;20156;-79
2021/12/19 11:43:42;;;;;;;12.50;3.97;;;;;;;6.39;100.00;103013.53;4988965;28;20030;-79
2021/12/19 11:46:20;;;;;;;14.98;4.35;;;;;;;6.41;99.53;103006.34;4995578;28;20252;-79
2021/12/19 11:48:46;;;;;;;16.80;4.60;;;;;;;6.42;100.00;103013.47;4991526;28;20220;-79
2021/12/19 11:51:20;;;;;;;13.73;4.28;;;;;;;6.45;100.00;103018.72;4986735;28;20169;-79
2021/12/19 11:53:46;;;;;;;13.20;4.10;;;;;;;6.45;100.00;103005.38;5017542;28;20141;-79
2021/12/19 11:56:16;;;;;;;15.45;4.82;;;;;;;6.45;100.00;103013.38;5015092;28;20026;-79
2021/12/19 11:58:45;;;;;;;13.75;4.28;;;;;;;6.47;99.90;103003.53;4979638;28;20034;-79
2021/12/19 12:01:14;;;;;;;14.70;4.97;;;;;;;6.47;99.90;102991.09;5006311;28;20033;-79
2021/12/19 12:03:46;;;;;;;13.13;4.53;;;;;;;6.52;99.88;102998.13;5011596;28;20563;-79
2021/12/19 12:06:19;;;;;;;14.02;4.53;;;;;;;6.50;98.66;102989.25;5007588;28;20299;-79
2021/12/19 12:09:04;;;;;;;17.48;5.00;;;;;;;6.53;99.89;102992.75;5014986;28;20030;-79
2021/12/19 12:11:30;;;;;;;13.45;4.22;;;;;;;6.48;98.97;102991.94;5009426;28;20052;-79
2021/12/19 12:14:23;;;;;;;15.13;4.05;;;;;;;6.47;98.46;102991.09;5013867;28;20061;-79
2021/12/19 12:16:58;;;;;;;13.88;3.80;;;;;;;6.48;99.29;102995.50;4997926;28;20026;-79
2021/12/19 12:19:46;;;;;;;18.88;4.20;;;;;;;6.53;99.64;102986.50;5001350;28;20029;-80
2021/12/19 12:22:26;;;;;;;14.70;4.43;;;;;;;6.56;98.89;102984.66;5005726;28;20047;-79
2021/12/19 12:25:04;;;;;;;12.85;3.78;;;;;;;6.59;98.75;102973.91;5006808;28;20099;-79
2021/12/19 12:27:42;;;;;;;11.32;3.95;;;;;;;6.61;98.83;102972.06;4997627;28;20049;-79